sensor_id;sensor_type;location;lat;lon;timestamp;pressure;altitude;pressure_sealevel;temperature;humidity
68199;BME280;55021;51.554;17.044;2023-04-08T00:02:43;100829.34;;;7.71;95.26
68199;BME280;55021;51.554;17.044;2023-04-08T00:17:46;100872.81;;;7.67;95.95
68199;BME280;55021;51.554;17.044;2023-04-08T00:32:49;100879.09;;;8.31;90.68
68199;BME280;55021;51.554;17.044;2023-04-08T00:47:51;100903.47;;;6.64;94.41
68199;BME280;55021;51.554;17.044;2023-04-08T01:03:00;100857.34;;;6.36;95.75
68199;BME280;55021;51.554;17.044;2023-04-08T01:18:11;100921.06;;;7.25;93.34
68199;BME280;55021;51.554;17.044;2023-04-08T01:33:16;100922.16;;;7.34;92.53
68199;BME280;55021;51.554;17.044;2023-04-08T01:48:20;100951.91;;;6.41;96.76
68199;BME280;55021;51.554;17.044;2023-04-08T02:03:24;100986.81;;;6.04;94.17
68199;BME280;55021;51.554;17.044;2023-04-08T02:18:29;100970.00;;;6.26;89.06
68199;BME280;55021;51.554;17.044;2023-04-08T02:33:33;101011.69;;;6.79;89.62
68199;BME280;55021;51.554;17.044;2023-04-08T02:48:36;101012.53;;;6.79;85.38
68199;BME280;55021;51.554;17.044;2023-04-08T03:03:39;101022.88;;;5.89;87.39
68199;BME280;55021;51.554;17.044;2023-04-08T03:18:41;101073.84;;;6.14;87.39
68199;BME280;55021;51.554;17.044;2023-04-08T03:33:43;100998.19;;;5.84;85.96
68199;BME280;55021;51.554;17.044;2023-04-08T03:48:45;101098.38;;;5.97;89.19
68199;BME280;55021;51.554;17.044;2023-04-08T04:03:48;101056.56;;;6.06;85.18
68199;BME280;55021;51.554;17.044;2023-04-08T04:34:16;101062.66;;;6.20;81.57
68199;BME280;55021;51.554;17.044;2023-04-08T04:49:27;101082.88;;;5.13;84.75
68199;BME280;55021;51.554;17.044;2023-04-08T05:04:44;101129.63;;;5.86;84.30
68199;BME280;55021;51.554;17.044;2023-04-08T05:19:53;101185.34;;;5.82;84.09
68199;BME280;55021;51.554;17.044;2023-04-08T05:34:56;101123.28;;;5.49;83.84
68199;BME280;55021;51.554;17.044;2023-04-08T05:49:58;101214.94;;;6.58;79.59
68199;BME280;55021;51.554;17.044;2023-04-08T06:05:03;101244.19;;;6.50;78.88
68199;BME280;55021;51.554;17.044;2023-04-08T06:20:10;101258.25;;;6.66;78.34
68199;BME280;55021;51.554;17.044;2023-04-08T06:35:13;101250.47;;;6.86;78.05
68199;BME280;55021;51.554;17.044;2023-04-08T06:50:15;101276.50;;;6.10;78.22
68199;BME280;55021;51.554;17.044;2023-04-08T07:05:18;101264.00;;;7.34;75.07
68199;BME280;55021;51.554;17.044;2023-04-08T07:20:21;101265.59;;;7.36;73.77
68199;BME280;55021;51.554;17.044;2023-04-08T07:35:24;101315.63;;;8.10;72.55
68199;BME280;55021;51.554;17.044;2023-04-08T07:50:26;101312.66;;;8.02;72.13
68199;BME280;55021;51.554;17.044;2023-04-08T08:05:29;101263.53;;;7.40;71.07
68199;BME280;55021;51.554;17.044;2023-04-08T08:20:31;101337.25;;;8.78;69.15
68199;BME280;55021;51.554;17.044;2023-04-08T08:35:33;101267.06;;;9.65;66.19
68199;BME280;55021;51.554;17.044;2023-04-08T08:50:36;101306.94;;;9.30;63.63
68199;BME280;55021;51.554;17.044;2023-04-08T09:05:46;101357.28;;;10.49;62.49
68199;BME280;55021;51.554;17.044;2023-04-08T09:20:52;101367.94;;;9.87;63.06
68199;BME280;55021;51.554;17.044;2023-04-08T09:35:55;101347.19;;;9.22;63.29
68199;BME280;55021;51.554;17.044;2023-04-08T11:52:07;101387.22;;;12.17;51.36
68199;BME280;55021;51.554;17.044;2023-04-08T12:07:10;101401.38;;;13.15;52.08
68199;BME280;55021;51.554;17.044;2023-04-08T12:22:13;101400.13;;;13.10;51.03
68199;BME280;55021;51.554;17.044;2023-04-08T12:37:15;101397.91;;;13.23;50.98
68199;BME280;55021;51.554;17.044;2023-04-08T12:52:18;101394.38;;;13.13;49.58
68199;BME280;55021;51.554;17.044;2023-04-08T13:07:21;101386.88;;;13.71;51.51
68199;BME280;55021;51.554;17.044;2023-04-08T13:22:23;101396.25;;;13.12;51.04
68199;BME280;55021;51.554;17.044;2023-04-08T13:37:26;101384.34;;;12.38;52.82
68199;BME280;55021;51.554;17.044;2023-04-08T13:52:28;101381.34;;;12.70;53.47
68199;BME280;55021;51.554;17.044;2023-04-08T14:07:31;101387.19;;;12.65;51.51
68199;BME280;55021;51.554;17.044;2023-04-08T14:22:33;101373.78;;;12.54;51.20
68199;BME280;55021;51.554;17.044;2023-04-08T14:37:36;101361.09;;;13.11;54.03
68199;BME280;55021;51.554;17.044;2023-04-08T14:52:39;101374.50;;;12.28;53.85
68199;BME280;55021;51.554;17.044;2023-04-08T15:07:41;101377.50;;;13.19;50.49
68199;BME280;55021;51.554;17.044;2023-04-08T15:22:44;101375.34;;;12.47;54.43
68199;BME280;55021;51.554;17.044;2023-04-08T15:37:47;101390.50;;;12.21;55.12
68199;BME280;55021;51.554;17.044;2023-04-08T15:52:49;101327.94;;;12.03;54.79
68199;BME280;55021;51.554;17.044;2023-04-08T16:07:51;101342.53;;;12.12;53.21
68199;BME280;55021;51.554;17.044;2023-04-08T16:22:54;101394.50;;;12.27;54.73
68199;BME280;55021;51.554;17.044;2023-04-08T16:53:41;101336.66;;;11.48;59.68
68199;BME280;55021;51.554;17.044;2023-04-08T17:08:45;101313.19;;;11.18;60.27
68199;BME280;55021;51.554;17.044;2023-04-08T17:23:48;101338.28;;;11.20;60.85
68199;BME280;55021;51.554;17.044;2023-04-08T17:38:51;101416.34;;;11.36;61.78
68199;BME280;55021;51.554;17.044;2023-04-08T17:53:54;101456.31;;;11.43;63.13
68199;BME280;55021;51.554;17.044;2023-04-08T18:08:57;101473.69;;;10.58;67.40
68199;BME280;55021;51.554;17.044;2023-04-08T18:24:00;101438.00;;;9.56;69.39
68199;BME280;55021;51.554;17.044;2023-04-08T18:39:03;101444.78;;;8.72;73.11
68199;BME280;55021;51.554;17.044;2023-04-08T18:54:35;101460.09;;;9.06;72.19
68199;BME280;55021;51.554;17.044;2023-04-08T19:25:54;101429.75;;;8.22;74.38
68199;BME280;55021;51.554;17.044;2023-04-08T19:40:56;101524.97;;;8.10;76.37
68199;BME280;55021;51.554;17.044;2023-04-08T19:55:59;101462.59;;;7.67;76.55
68199;BME280;55021;51.554;17.044;2023-04-08T20:11:02;101485.25;;;7.88;75.83
68199;BME280;55021;51.554;17.044;2023-04-08T20:26:06;101527.66;;;8.46;73.63
68199;BME280;55021;51.554;17.044;2023-04-08T20:41:09;101508.66;;;8.47;73.13
68199;BME280;55021;51.554;17.044;2023-04-08T20:56:11;101528.94;;;7.68;76.35
68199;BME280;55021;51.554;17.044;2023-04-08T21:11:14;101494.81;;;7.56;75.37
68199;BME280;55021;51.554;17.044;2023-04-08T21:26:17;101445.63;;;7.77;72.40
68199;BME280;55021;51.554;17.044;2023-04-08T21:41:20;101524.16;;;8.33;72.14
68199;BME280;55021;51.554;17.044;2023-04-08T21:56:23;101467.72;;;7.21;74.70
68199;BME280;55021;51.554;17.044;2023-04-08T22:11:25;101521.63;;;7.57;75.13
68199;BME280;55021;51.554;17.044;2023-04-08T22:26:28;101528.19;;;7.66;76.26
68199;BME280;55021;51.554;17.044;2023-04-08T22:41:30;101506.00;;;7.62;75.74
68199;BME280;55021;51.554;17.044;2023-04-08T22:56:35;101447.44;;;7.40;76.40
68199;BME280;55021;51.554;17.044;2023-04-08T23:11:38;101457.13;;;7.30;76.98
68199;BME280;55021;51.554;17.044;2023-04-08T23:42:23;101441.63;;;7.34;77.66
68199;BME280;55021;51.554;17.044;2023-04-08T23:57:26;101485.03;;;7.42;78.14
